Time;durP1;ratioP1;P1;durP2;ratioP2;P2;SDS_P1;SDS_P2;PMS_P1;PMS_P2;Temp;Humidity;BMP_temperature;BMP_pressure;BME280_temperature;BME280_humidity;BME280_pressure;Samples;Min_cycle;Max_cycle;Signal;HPM_P1;HPM_P2
2022/11/29 00:01:18;;;;;;;26.77;18.17;;;9.80;42.50;;;;;;5076047;28;20536;-52
2022/11/29 00:03:44;;;;;;;23.35;17.52;;;9.80;42.50;;;;;;5075877;28;20185;-52
2022/11/29 00:06:26;;;;;;;28.48;18.17;;;9.80;42.50;;;;;;5075543;28;20187;-52
2022/11/29 00:08:53;;;;;;;36.95;19.45;;;9.80;42.60;;;;;;5075505;28;20230;-52
2022/11/29 00:14:08;;;;;;;29.42;16.95;;;9.80;42.70;;;;;;5075845;28;20748;-52
2022/11/29 00:16:35;;;;;;;28.30;19.33;;;9.70;42.80;;;;;;5075336;28;20207;-52
2022/11/29 00:19:01;;;;;;;29.00;19.48;;;9.70;43.00;;;;;;5075218;28;20228;-52
2022/11/29 00:21:26;;;;;;;28.50;18.67;;;9.70;43.00;;;;;;5075262;28;20275;-52
2022/11/29 00:23:52;;;;;;;29.13;20.13;;;9.70;43.00;;;;;;5075283;28;20417;-52
2022/11/29 00:26:18;;;;;;;24.77;17.55;;;9.70;43.00;;;;;;5075156;28;20193;-52
2022/11/29 00:28:44;;;;;;;26.60;17.70;;;9.70;43.10;;;;;;5074964;28;20204;-52
2022/11/29 00:31:20;;;;;;;27.30;19.47;;;9.70;43.20;;;;;;5075407;28;20179;-52
2022/11/29 00:33:46;;;;;;;26.50;17.98;;;9.70;43.10;;;;;;5075319;28;20180;-52
2022/11/29 00:36:13;;;;;;;31.85;20.48;;;9.70;43.10;;;;;;5075201;28;20260;-52
2022/11/29 00:38:39;;;;;;;29.05;18.58;;;9.70;43.00;;;;;;5074762;28;20659;-52
2022/11/29 00:41:05;;;;;;;30.73;18.20;;;9.80;43.00;;;;;;5075225;28;20261;-52
2022/11/29 00:43:31;;;;;;;27.63;18.20;;;9.80;43.10;;;;;;5074863;28;20179;-52
2022/11/29 00:45:57;;;;;;;29.60;18.70;;;9.80;43.00;;;;;;5074840;28;20322;-53
2022/11/29 00:48:22;;;;;;;31.10;19.37;;;9.80;43.00;;;;;;5074484;28;20231;-52
2022/11/29 00:50:48;;;;;;;28.27;19.10;;;9.80;43.10;;;;;;5075004;28;20407;-52
2022/11/29 00:53:14;;;;;;;35.23;19.77;;;9.80;43.00;;;;;;5075083;28;20409;-52
2022/11/29 00:55:40;;;;;;;30.43;21.50;;;9.90;42.90;;;;;;5074777;28;20183;-52
2022/11/29 00:58:05;;;;;;;34.23;19.40;;;9.90;42.80;;;;;;5074396;28;20201;-52
2022/11/29 01:00:31;;;;;;;31.53;19.27;;;9.90;42.80;;;;;;5074132;28;20256;-52
2022/11/29 01:02:57;;;;;;;29.07;18.73;;;9.90;43.00;;;;;;5074792;28;20179;-52
2022/11/29 01:05:23;;;;;;;29.77;18.73;;;9.90;43.00;;;;;;5074787;28;20417;-52
2022/11/29 01:07:48;;;;;;;32.27;19.63;;;9.90;43.00;;;;;;5074156;28;20823;-52
2022/11/29 01:10:14;;;;;;;28.00;19.43;;;9.90;43.00;;;;;;5074376;28;20201;-52
2022/11/29 01:12:40;;;;;;;31.17;21.80;;;9.90;43.00;;;;;;5074396;28;20271;-52
2022/11/29 01:15:07;;;;;;;28.57;19.77;;;9.90;43.00;;;;;;5074364;28;20199;-52
2022/11/29 01:17:37;;;;;;;27.80;19.80;;;10.00;43.00;;;;;;5073990;28;20211;-52
2022/11/29 01:20:04;;;;;;;35.22;23.27;;;10.00;43.00;;;;;;5074334;28;20672;-52
2022/11/29 01:22:30;;;;;;;29.58;17.85;;;9.90;42.90;;;;;;5074239;28;20187;-52
2022/11/29 01:24:56;;;;;;;26.20;19.70;;;9.90;43.00;;;;;;5074192;28;20179;-52
2022/11/29 01:27:21;;;;;;;31.23;21.07;;;10.00;43.10;;;;;;5073956;28;20208;-49
2022/11/29 01:29:47;;;;;;;30.17;20.13;;;10.00;43.00;;;;;;5073978;28;20501;-52
2022/11/29 01:32:13;;;;;;;28.23;19.07;;;10.00;43.00;;;;;;5073899;28;20165;-52
2022/11/29 01:34:39;;;;;;;30.07;20.07;;;10.00;43.00;;;;;;5074257;28;20182;-52
2022/11/29 01:37:05;;;;;;;32.60;21.77;;;10.00;43.00;;;;;;5073898;28;20427;-53
2022/11/29 01:39:31;;;;;;;33.27;20.13;;;10.10;43.00;;;;;;5073956;28;20406;-52
2022/11/29 01:41:56;;;;;;;35.80;21.50;;;10.00;42.90;;;;;;5073934;28;20179;-53
2022/11/29 01:44:22;;;;;;;34.87;20.60;;;10.00;43.00;;;;;;5073803;28;20255;-52
2022/11/29 01:46:48;;;;;;;32.73;20.83;;;10.00;43.00;;;;;;5073643;28;20456;-52
2022/11/29 01:49:19;;;;;;;30.77;20.37;;;10.00;43.10;;;;;;5073466;28;20199;-52
2022/11/29 01:51:51;;;;;;;31.05;21.17;;;10.00;43.00;;;;;;5073994;28;20394;-53
2022/11/29 01:54:18;;;;;;;31.48;21.08;;;10.00;43.10;;;;;;5073595;28;20662;-52
2022/11/29 01:56:47;;;;;;;26.63;18.38;;;10.00;43.10;;;;;;5073502;28;20266;-53
2022/11/29 01:59:17;;;;;;;31.15;20.45;;;10.00;43.30;;;;;;5073255;28;20675;-53
2022/11/29 02:01:42;;;;;;;38.65;22.67;;;10.00;43.30;;;;;;5073762;28;20259;-52
2022/11/29 02:04:08;;;;;;;34.70;23.33;;;10.00;43.30;;;;;;5073570;28;20212;-53
2022/11/29 02:06:35;;;;;;;34.15;23.30;;;10.00;43.40;;;;;;5073261;28;20218;-53
2022/11/29 02:09:01;;;;;;;30.90;20.38;;;9.90;43.60;;;;;;5073027;28;20571;-52
2022/11/29 02:11:49;;;;;;;34.67;21.15;;;10.00;43.70;;;;;;5073294;28;20298;-52
2022/11/29 02:14:57;;;;;;;30.63;20.98;;;10.00;43.80;;;;;;5073223;28;20192;-51
2022/11/29 02:17:32;;;;;;;35.95;20.90;;;10.00;43.90;;;;;;5073029;28;20208;-53
2022/11/29 02:20:19;;;;;;;29.27;19.50;;;10.00;44.30;;;;;;5073194;28;20158;-53
2022/11/29 02:23:29;;;;;;;35.55;19.77;;;10.00;44.10;;;;;;5073075;28;20172;-53
2022/11/29 02:26:19;;;;;;;37.90;22.77;;;10.00;44.30;;;;;;5062099;28;20184;-52
2022/11/29 02:29:22;;;;;;;32.28;20.73;;;9.90;44.70;;;;;;5072632;28;20215;-52
2022/11/29 02:32:18;;;;;;;36.88;22.40;;;9.90;44.70;;;;;;5071354;28;20185;-53
2022/11/29 02:34:58;;;;;;;38.70;24.67;;;9.90;45.10;;;;;;5072770;28;20765;-53
2022/11/29 02:37:36;;;;;;;31.48;20.65;;;9.90;45.20;;;;;;5072711;28;20219;-53
2022/11/29 02:40:23;;;;;;;36.50;21.42;;;9.80;45.30;;;;;;5072634;28;20520;-53
2022/11/29 02:43:06;;;;;;;32.05;21.38;;;9.80;45.60;;;;;;5072554;28;20166;-52
2022/11/29 02:46:01;;;;;;;32.20;21.40;;;9.80;45.60;;;;;;5072928;28;20228;-52
2022/11/29 02:48:39;;;;;;;31.50;20.70;;;9.80;45.80;;;;;;5072216;28;20616;-53
2022/11/29 02:51:16;;;;;;;33.60;21.75;;;9.70;46.40;;;;;;5072488;28;20183;-53
2022/11/29 02:54:26;;;;;;;35.20;22.77;;;9.70;46.60;;;;;;5072731;28;20168;-53
2022/11/29 02:57:00;;;;;;;30.83;20.73;;;9.70;46.60;;;;;;5072533;28;20650;-53
2022/11/29 02:59:47;;;;;;;29.92;21.40;;;9.60;47.40;;;;;;5072073;28;20216;-53
2022/11/29 03:02:39;;;;;;;38.05;23.20;;;9.50;47.30;;;;;;5072425;28;20182;-53
2022/11/29 03:05:47;;;;;;;34.75;22.05;;;9.50;47.60;;;;;;5070236;28;20695;-53
2022/11/29 03:08:40;;;;;;;33.70;21.83;;;9.50;47.40;;;;;;5071877;28;20211;-53
2022/11/29 03:11:24;;;;;;;39.85;22.17;;;9.50;47.70;;;;;;5072249;28;20152;-53
2022/11/29 03:14:18;;;;;;;32.30;21.00;;;9.50;47.60;;;;;;5072240;28;20160;-52
2022/11/29 03:16:55;;;;;;;32.58;20.95;;;9.40;47.60;;;;;;5072153;28;20201;-52
2022/11/29 03:19:58;;;;;;;33.08;20.75;;;9.50;47.80;;;;;;5071959;28;20210;-53
2022/11/29 03:22:32;;;;;;;34.55;22.02;;;9.50;47.80;;;;;;5072052;28;20187;-53
2022/11/29 03:25:16;;;;;;;33.58;21.67;;;9.50;47.90;;;;;;5071594;28;20167;-52
2022/11/29 03:28:20;;;;;;;39.08;22.42;;;9.60;47.70;;;;;;5071907;28;20212;-52
2022/11/29 03:30:57;;;;;;;37.08;23.83;;;9.60;47.80;;;;;;5048707;28;20237;-53
2022/11/29 03:33:57;;;;;;;29.27;20.17;;;9.50;48.20;;;;;;5072210;28;20175;-53
2022/11/29 03:36:42;;;;;;;36.42;22.35;;;9.50;47.90;;;;;;5069708;28;20204;-53
2022/11/29 03:39:16;;;;;;;38.97;23.80;;;9.50;48.20;;;;;;5071685;28;20192;-53
2022/11/29 03:41:48;;;;;;;36.30;21.90;;;9.60;48.10;;;;;;5072244;28;20191;-52
2022/11/29 03:44:22;;;;;;;39.45;22.30;;;9.50;48.20;;;;;;5072229;28;20221;-52
2022/11/29 03:47:01;;;;;;;38.70;22.38;;;9.50;48.40;;;;;;5072109;28;20199;-52
2022/11/29 03:49:36;;;;;;;36.95;21.85;;;9.50;48.50;;;;;;5071512;28;20199;-52
2022/11/29 03:52:41;;;;;;;38.08;20.13;;;9.40;48.70;;;;;;5071877;28;20160;-53
2022/11/29 03:55:25;;;;;;;38.53;21.85;;;9.40;48.60;;;;;;5071977;28;20175;-53
2022/11/29 03:58:38;;;;;;;30.67;19.85;;;9.30;48.80;;;;;;5071329;28;20690;-52
2022/11/29 04:01:55;;;;;;;35.40;21.67;;;9.40;48.60;;;;;;5062848;28;20208;-53
2022/11/29 04:05:06;;;;;;;35.25;20.77;;;9.40;48.50;;;;;;5048487;28;20207;-52
2022/11/29 04:07:42;;;;;;;34.25;21.77;;;9.50;48.40;;;;;;5071373;28;20200;-53
2022/11/29 04:10:33;;;;;;;28.35;21.63;;;9.40;48.40;;;;;;5071688;28;20174;-53
2022/11/29 04:13:34;;;;;;;31.52;21.98;;;9.50;48.40;;;;;;5071626;28;20192;-53
2022/11/29 04:16:32;;;;;;;34.85;20.27;;;9.50;48.40;;;;;;5071435;28;20210;-52
2022/11/29 04:19:15;;;;;;;33.28;20.35;;;9.50;48.60;;;;;;5071374;28;20203;-53
2022/11/29 04:22:03;;;;;;;36.17;22.13;;;9.40;48.50;;;;;;5071826;28;20168;-52
2022/11/29 04:24:50;;;;;;;36.10;22.08;;;9.50;48.70;;;;;;5071540;28;20699;-50
2022/11/29 04:27:40;;;;;;;33.75;20.40;;;9.40;48.60;;;;;;5071505;28;20210;-52
2022/11/29 04:30:15;;;;;;;38.00;24.08;;;9.40;48.70;;;;;;5071519;28;20181;-52
2022/11/29 04:32:52;;;;;;;36.45;21.10;;;9.40;48.90;;;;;;5071513;28;20176;-52
2022/11/29 04:35:36;;;;;;;32.45;21.30;;;9.40;48.90;;;;;;5071392;28;20153;-52
2022/11/29 04:38:27;;;;;;;33.97;21.95;;;9.40;48.70;;;;;;5074780;28;20195;-52
2022/11/29 04:41:18;;;;;;;33.28;20.02;;;9.40;48.80;;;;;;5075374;28;20176;-52
2022/11/29 04:43:53;;;;;;;29.38;20.20;;;9.40;48.80;;;;;;5074925;28;20167;-52
2022/11/29 04:46:56;;;;;;;36.65;21.73;;;9.30;48.70;;;;;;5074828;28;20570;-52
2022/11/29 04:49:40;;;;;;;33.55;20.60;;;9.40;48.70;;;;;;5074562;28;20196;-53
2022/11/29 04:52:09;;;;;;;33.80;22.75;;;9.40;48.60;;;;;;5074893;28;20188;-52
2022/11/29 04:54:47;;;;;;;33.25;22.25;;;9.30;48.70;;;;;;5075051;28;20179;-52
2022/11/29 04:57:38;;;;;;;33.33;20.08;;;9.40;48.70;;;;;;5074594;28;20195;-52
2022/11/29 05:00:23;;;;;;;34.28;19.88;;;9.30;48.60;;;;;;5074677;28;20715;-52
2022/11/29 05:16:18;;;;;;;31.25;21.30;;;9.20;48.90;;;;;;5071728;28;20245;-53
2022/11/29 05:19:17;;;;;;;36.10;22.45;;;9.20;49.00;;;;;;5071824;28;20202;-53
2022/11/29 05:21:54;;;;;;;39.30;23.00;;;9.20;48.90;;;;;;5071957;28;20177;-53
2022/11/29 05:24:23;;;;;;;35.35;21.23;;;9.30;48.80;;;;;;5071858;28;20333;-53
2022/11/29 05:26:54;;;;;;;35.95;22.17;;;9.30;48.70;;;;;;5071670;28;20208;-53
2022/11/29 05:29:44;;;;;;;32.80;21.50;;;9.30;48.60;;;;;;5071482;28;20200;-53
2022/11/29 05:32:10;;;;;;;34.42;21.48;;;9.20;48.40;;;;;;5071411;28;20232;-53
2022/11/29 05:34:56;;;;;;;35.20;19.97;;;9.20;48.50;;;;;;5071532;28;20270;-53
2022/11/29 05:37:40;;;;;;;28.70;19.38;;;9.30;48.50;;;;;;5072985;28;20694;-53
2022/11/29 05:40:42;;;;;;;30.73;20.13;;;9.30;48.30;;;;;;5074003;28;20191;-53
2022/11/29 05:43:34;;;;;;;34.28;21.17;;;9.30;48.30;;;;;;5073824;28;20588;-53
2022/11/29 05:46:17;;;;;;;27.67;19.55;;;9.20;48.30;;;;;;5073908;28;20190;-53
2022/11/29 05:49:04;;;;;;;30.77;20.20;;;9.20;48.20;;;;;;5073372;28;20194;-53
2022/11/29 05:51:43;;;;;;;35.15;20.38;;;9.10;48.30;;;;;;5073688;28;20167;-53
2022/11/29 05:54:38;;;;;;;31.92;18.63;;;9.10;48.30;;;;;;5073782;28;20574;-53
2022/11/29 05:57:03;;;;;;;30.90;20.23;;;9.10;48.40;;;;;;5057232;28;20757;-52
2022/11/29 05:59:31;;;;;;;33.87;19.73;;;9.10;48.40;;;;;;5073282;28;20183;-53
2022/11/29 06:02:27;;;;;;;30.15;20.42;;;9.00;48.30;;;;;;5073656;28;20172;-53
2022/11/29 06:05:03;;;;;;;32.63;20.60;;;9.10;48.40;;;;;;5073671;28;20504;-53
2022/11/29 06:07:50;;;;;;;30.38;19.75;;;9.00;48.40;;;;;;5071979;28;20326;-51
2022/11/29 06:10:23;;;;;;;35.00;20.50;;;9.10;48.40;;;;;;5073543;28;20168;-53
2022/11/29 06:13:26;;;;;;;33.53;19.13;;;9.10;48.20;;;;;;5073253;28;20551;-52
2022/11/29 06:16:16;;;;;;;32.60;21.00;;;9.10;48.10;;;;;;5073211;28;20167;-51
2022/11/29 06:19:21;;;;;;;31.30;19.55;;;9.10;48.30;;;;;;5072909;28;20248;-52
2022/11/29 06:22:15;;;;;;;28.10;18.55;;;9.10;48.00;;;;;;5073063;28;20257;-52
2022/11/29 06:25:16;;;;;;;27.23;17.83;;;9.10;48.00;;;;;;5072955;28;20185;-52
2022/11/29 06:28:03;;;;;;;30.27;18.83;;;9.10;48.10;;;;;;5072653;28;20215;-52
2022/11/29 06:30:51;;;;;;;32.55;21.48;;;9.10;48.00;;;;;;5072979;28;20724;-53
2022/11/29 06:33:43;;;;;;;34.22;21.45;;;9.10;48.00;;;;;;5073066;28;20188;-52
2022/11/29 06:36:21;;;;;;;32.78;18.65;;;9.20;48.00;;;;;;5067147;28;20208;-52
2022/11/29 06:38:47;;;;;;;35.92;21.65;;;9.20;47.70;;;;;;5072564;28;20181;-53
2022/11/29 06:41:18;;;;;;;32.60;21.20;;;9.20;47.70;;;;;;5072906;28;20231;-53
2022/11/29 06:43:44;;;;;;;32.10;18.67;;;9.20;47.80;;;;;;5072666;28;20409;-52
2022/11/29 06:46:31;;;;;;;36.05;21.27;;;9.20;47.80;;;;;;5072478;28;20654;-53
2022/11/29 06:49:11;;;;;;;32.92;20.30;;;9.20;47.70;;;;;;5072473;28;20202;-52
2022/11/29 06:51:46;;;;;;;29.55;18.15;;;9.20;47.80;;;;;;5072486;28;20229;-52
2022/11/29 06:54:20;;;;;;;36.38;19.00;;;9.10;47.80;;;;;;5072699;28;20255;-53
2022/11/29 06:57:01;;;;;;;29.80;19.00;;;9.10;48.00;;;;;;5072273;28;20679;-53
2022/11/29 06:59:57;;;;;;;32.60;19.88;;;9.10;47.90;;;;;;5071550;28;20182;-52
2022/11/29 07:03:00;;;;;;;37.92;19.27;;;9.10;48.00;;;;;;5072318;28;20241;-53
2022/11/29 07:05:32;;;;;;;26.60;16.90;;;9.10;48.00;;;;;;5072354;28;20174;-53
2022/11/29 07:08:10;;;;;;;31.40;18.80;;;9.10;48.20;;;;;;5072121;28;20568;-52
2022/11/29 07:10:38;;;;;;;30.33;19.50;;;9.00;48.00;;;;;;5072548;28;20176;-52
2022/11/29 07:13:05;;;;;;;34.33;19.92;;;8.90;48.30;;;;;;5072116;28;20266;-53
2022/11/29 07:15:31;;;;;;;32.38;19.35;;;9.00;48.30;;;;;;5072273;28;20177;-52
2022/11/29 07:18:24;;;;;;;31.63;19.90;;;9.10;48.20;;;;;;5071710;28;20784;-52
2022/11/29 07:21:05;;;;;;;31.67;19.02;;;9.10;48.00;;;;;;5071960;28;20187;-52
2022/11/29 07:23:42;;;;;;;25.50;18.08;;;9.10;48.10;;;;;;5072100;28;20172;-52
2022/11/29 07:26:26;;;;;;;36.53;19.50;;;9.10;48.10;;;;;;5070784;28;20182;-53
2022/11/29 07:29:07;;;;;;;31.75;19.45;;;9.10;48.30;;;;;;5071905;28;20228;-52
2022/11/29 07:32:03;;;;;;;32.42;17.20;;;9.00;48.20;;;;;;5071877;28;20191;-52
2022/11/29 07:34:53;;;;;;;30.25;17.58;;;9.10;48.40;;;;;;5072109;28;20183;-52
2022/11/29 07:38:10;;;;;;;28.13;17.90;;;9.10;48.40;;;;;;5071843;28;20602;-52
2022/11/29 07:40:48;;;;;;;27.30;17.65;;;9.20;48.40;;;;;;5044301;28;20175;-53
2022/11/29 07:43:21;;;;;;;28.67;17.23;;;9.10;48.40;;;;;;5071922;28;20247;-53
2022/11/29 07:45:47;;;;;;;33.03;19.88;;;9.20;48.30;;;;;;5071810;28;20164;-53
2022/11/29 07:48:15;;;;;;;29.83;18.23;;;9.10;48.30;;;;;;5071465;28;20210;-53
2022/11/29 07:50:41;;;;;;;30.40;18.27;;;9.20;48.20;;;;;;5072019;28;20181;-52
2022/11/29 07:53:14;;;;;;;29.47;19.00;;;9.20;48.30;;;;;;5071833;28;20179;-52
2022/11/29 07:55:40;;;;;;;36.10;18.80;;;9.20;48.40;;;;;;5071949;28;20410;-53
2022/11/29 07:58:05;;;;;;;30.90;18.33;;;9.20;48.30;;;;;;5071586;28;20568;-53
2022/11/29 08:00:31;;;;;;;28.60;19.67;;;9.10;48.30;;;;;;5071711;28;20281;-52
2022/11/29 08:02:57;;;;;;;28.27;18.80;;;9.30;48.50;;;;;;5071694;28;20171;-53
2022/11/29 08:05:23;;;;;;;28.27;18.60;;;9.30;48.50;;;;;;5071733;28;20182;-52
2022/11/29 08:07:48;;;;;;;26.27;17.00;;;9.30;48.40;;;;;;5071574;28;20204;-53
2022/11/29 08:10:16;;;;;;;33.03;19.20;;;9.30;48.50;;;;;;5073011;28;20399;-53
2022/11/29 08:12:46;;;;;;;34.05;19.73;;;9.40;48.40;;;;;;5075421;28;20940;-52
2022/11/29 08:15:13;;;;;;;35.20;19.80;;;9.30;48.20;;;;;;5075740;28;20175;-53
2022/11/29 08:17:39;;;;;;;29.13;18.23;;;9.30;48.40;;;;;;5075067;28;20253;-53
2022/11/29 08:20:06;;;;;;;30.25;17.42;;;9.30;48.40;;;;;;5075713;28;20176;-53
2022/11/29 08:22:32;;;;;;;30.75;17.73;;;9.30;48.50;;;;;;5075465;28;20586;-52
2022/11/29 08:24:58;;;;;;;31.80;17.37;;;9.30;48.30;;;;;;5075402;28;20175;-53
2022/11/29 08:27:24;;;;;;;30.80;18.58;;;9.40;48.40;;;;;;5074971;28;21013;-52
2022/11/29 08:29:50;;;;;;;25.63;17.83;;;9.40;48.30;;;;;;5074967;28;20217;-53
2022/11/29 08:32:16;;;;;;;28.53;17.80;;;9.50;48.20;;;;;;5075300;28;20173;-53
2022/11/29 08:34:42;;;;;;;26.47;17.10;;;9.50;48.10;;;;;;5075422;28;20497;-52
2022/11/29 08:37:08;;;;;;;32.10;18.30;;;9.50;47.80;;;;;;5074957;28;21016;-53
2022/11/29 08:39:33;;;;;;;30.10;17.33;;;9.60;47.90;;;;;;5074796;28;20172;-52
2022/11/29 08:41:59;;;;;;;28.40;17.93;;;9.70;48.00;;;;;;5074939;28;20175;-52
2022/11/29 08:44:25;;;;;;;23.50;15.23;;;9.80;47.70;;;;;;5074952;28;20168;-52
2022/11/29 08:49:59;;;;;;;29.85;18.65;;;9.70;47.20;;;;;;5074667;28;20199;-52
2022/11/29 08:55:05;;;;;;;24.73;16.58;;;9.80;47.50;;;;;;5074760;28;20198;-52
2022/11/29 08:57:30;;;;;;;23.38;14.90;;;9.70;47.50;;;;;;5074512;28;20199;-52
2022/11/29 08:59:56;;;;;;;29.17;17.87;;;9.70;47.30;;;;;;5074669;28;20179;-52
2022/11/29 09:02:22;;;;;;;26.23;16.63;;;9.70;47.20;;;;;;5074679;28;20674;-52
2022/11/29 09:04:47;;;;;;;27.07;15.70;;;9.80;47.70;;;;;;5074664;28;20178;-53
2022/11/29 09:07:14;;;;;;;26.77;14.83;;;9.70;47.20;;;;;;5074482;28;20188;-52
2022/11/29 09:09:40;;;;;;;28.13;16.23;;;9.80;47.10;;;;;;5074180;28;20685;-53
2022/11/29 09:12:07;;;;;;;31.43;16.77;;;9.80;47.10;;;;;;5074655;28;20186;-53
2022/11/29 09:14:33;;;;;;;25.88;15.60;;;9.80;47.10;;;;;;5074710;28;20259;-53
2022/11/29 09:17:00;;;;;;;23.05;15.45;;;9.80;47.10;;;;;;5074208;28;20200;-53
2022/11/29 09:19:26;;;;;;;25.35;15.48;;;9.80;47.10;;;;;;5074440;28;20381;-53
2022/11/29 09:21:53;;;;;;;24.23;15.05;;;9.80;46.90;;;;;;5073840;28;20803;-53
2022/11/29 09:24:19;;;;;;;22.55;14.68;;;9.80;47.20;;;;;;5074791;28;20183;-51
2022/11/29 09:26:47;;;;;;;24.92;16.20;;;9.80;47.60;;;;;;5074212;28;20230;-51
2022/11/29 09:29:14;;;;;;;23.90;13.70;;;9.80;47.20;;;;;;5074219;28;20204;-52
2022/11/29 09:31:42;;;;;;;24.27;13.80;;;9.80;47.10;;;;;;5074223;28;20177;-55
2022/11/29 09:34:08;;;;;;;22.90;15.13;;;9.80;47.10;;;;;;5074004;28;20519;-51
2022/11/29 09:36:33;;;;;;;20.53;14.50;;;9.90;47.40;;;;;;5074136;28;20191;-52
2022/11/29 09:39:03;;;;;;;21.63;14.30;;;9.90;46.80;;;;;;5073774;28;20172;-52
2022/11/29 09:41:38;;;;;;;26.08;16.20;;;9.90;46.70;;;;;;5073876;28;20179;-52
2022/11/29 09:44:20;;;;;;;22.33;14.73;;;9.90;46.70;;;;;;5073752;28;20172;-51
2022/11/29 09:47:09;;;;;;;24.75;14.60;;;9.90;47.20;;;;;;5073672;28;20199;-52
2022/11/29 09:49:35;;;;;;;24.50;14.73;;;9.90;47.10;;;;;;5073525;28;20203;-52
2022/11/29 09:52:13;;;;;;;23.20;13.73;;;9.90;47.30;;;;;;5073883;28;20543;-52
2022/11/29 09:54:57;;;;;;;19.95;13.35;;;9.90;46.90;;;;;;5073642;28;20179;-52
2022/11/29 09:57:25;;;;;;;23.13;14.18;;;9.90;46.70;;;;;;5073555;28;20249;-52
2022/11/29 10:00:02;;;;;;;22.95;14.20;;;9.90;46.90;;;;;;5073602;28;20586;-51
2022/11/29 10:02:35;;;;;;;20.40;14.60;;;9.90;46.40;;;;;;5073622;28;20217;-51
2022/11/29 10:05:10;;;;;;;22.35;14.55;;;9.90;46.60;;;;;;5073717;28;20165;-51
2022/11/29 10:07:47;;;;;;;22.60;13.18;;;9.90;47.10;;;;;;5073061;28;20634;-52
2022/11/29 10:10:29;;;;;;;18.35;12.88;;;10.00;46.40;;;;;;5073337;28;20175;-52
2022/11/29 10:13:39;;;;;;;23.20;15.25;;;10.00;45.80;;;;;;5073361;28;20172;-51
2022/11/29 10:16:35;;;;;;;25.52;16.00;;;10.00;46.20;;;;;;5049990;28;20184;-52
2022/11/29 10:19:09;;;;;;;23.05;13.32;;;10.00;45.90;;;;;;5073055;28;20684;-52
2022/11/29 10:21:39;;;;;;;22.42;14.93;;;10.00;46.10;;;;;;5073106;28;20184;-52
2022/11/29 10:24:13;;;;;;;22.73;13.50;;;10.00;45.60;;;;;;5072989;28;20257;-51
2022/11/29 10:26:40;;;;;;;19.33;13.75;;;10.00;45.30;;;;;;5072958;28;20676;-52
2022/11/29 10:29:09;;;;;;;21.63;15.18;;;9.90;45.90;;;;;;5072612;28;20695;-51
2022/11/29 10:31:41;;;;;;;20.13;13.50;;;10.00;45.90;;;;;;5072896;28;20175;-52
2022/11/29 10:34:14;;;;;;;24.83;13.88;;;10.00;45.70;;;;;;5071977;28;20176;-51
2022/11/29 10:36:58;;;;;;;22.00;14.65;;;10.00;45.80;;;;;;5072609;28;20230;-52
2022/11/29 10:39:38;;;;;;;21.98;15.15;;;10.20;45.60;;;;;;5072793;28;20564;-52
2022/11/29 10:42:47;;;;;;;21.88;14.27;;;10.20;45.30;;;;;;5072823;28;20178;-52
2022/11/29 10:44:59;;;;;;;23.00;14.48;;;10.20;45.10;;;;;;5072402;28;20187;-51
2022/11/29 10:47:25;;;;;;;23.90;15.55;;;10.10;45.10;;;;;;5072458;28;20193;-52
2022/11/29 10:49:50;;;;;;;25.75;15.07;;;10.20;45.10;;;;;;5072232;28;20214;-52
2022/11/29 10:52:21;;;;;;;25.10;16.07;;;10.20;45.30;;;;;;5072532;28;20183;-52
2022/11/29 10:54:49;;;;;;;24.88;14.68;;;10.20;44.90;;;;;;5072516;28;20413;-52
2022/11/29 10:57:20;;;;;;;25.85;15.35;;;10.20;44.90;;;;;;5072357;28;20199;-52
2022/11/29 11:00:08;;;;;;;29.77;16.40;;;10.10;44.50;;;;;;5072218;28;20582;-51
2022/11/29 11:02:35;;;;;;;23.23;14.48;;;10.10;45.00;;;;;;5072451;28;20205;-52
2022/11/29 11:05:02;;;;;;;22.38;15.13;;;10.10;45.20;;;;;;5072499;28;20187;-51
2022/11/29 11:07:33;;;;;;;24.83;15.90;;;10.10;45.20;;;;;;5072199;28;20714;-49
2022/11/29 11:10:00;;;;;;;22.83;14.75;;;10.10;45.20;;;;;;5072163;28;20153;-51
2022/11/29 11:12:32;;;;;;;23.55;16.50;;;10.10;44.70;;;;;;5072406;28;20176;-52
2022/11/29 11:15:23;;;;;;;23.77;14.55;;;10.10;44.80;;;;;;5072231;28;20165;-52
2022/11/29 11:18:02;;;;;;;21.55;15.00;;;10.10;44.90;;;;;;5071785;28;20204;-52
2022/11/29 11:20:31;;;;;;;28.58;16.58;;;10.20;45.20;;;;;;5072261;28;20262;-52
2022/11/29 11:23:06;;;;;;;25.67;15.00;;;10.10;44.80;;;;;;5072329;28;20179;-52
2022/11/29 11:25:34;;;;;;;25.48;16.40;;;10.20;45.10;;;;;;5072322;28;20176;-52
2022/11/29 11:28:20;;;;;;;27.13;16.92;;;10.20;44.70;;;;;;5071695;28;20204;-51
2022/11/29 11:31:07;;;;;;;24.70;14.43;;;10.20;44.30;;;;;;5072044;28;20161;-51
2022/11/29 11:33:41;;;;;;;28.55;17.52;;;10.20;44.70;;;;;;5072199;28;20242;-52
2022/11/29 11:36:07;;;;;;;28.88;16.38;;;10.20;44.70;;;;;;5071991;28;20167;-52
2022/11/29 11:38:35;;;;;;;24.90;15.93;;;10.30;44.90;;;;;;5071865;28;20570;-52
2022/11/29 11:41:17;;;;;;;22.90;14.95;;;10.30;44.10;;;;;;5071817;28;20763;-51
2022/11/29 11:43:58;;;;;;;27.23;16.30;;;10.30;44.50;;;;;;5071949;28;20709;-52
2022/11/29 11:46:48;;;;;;;26.38;16.50;;;10.30;44.60;;;;;;5075689;28;20196;-52
2022/11/29 11:49:26;;;;;;;26.10;15.60;;;10.30;44.60;;;;;;5075799;28;20203;-52
2022/11/29 11:51:52;;;;;;;27.55;17.05;;;10.20;44.40;;;;;;5076272;28;20208;-52
2022/11/29 11:54:18;;;;;;;31.93;16.50;;;10.20;45.40;;;;;;5075973;28;20191;-52
2022/11/29 11:56:44;;;;;;;30.75;17.73;;;10.30;44.30;;;;;;5075772;28;20434;-53
2022/11/29 11:59:19;;;;;;;28.00;17.53;;;10.30;44.50;;;;;;5075613;28;20180;-52
2022/11/29 12:01:45;;;;;;;21.65;15.32;;;10.30;44.40;;;;;;5075726;28;20183;-52
2022/11/29 12:04:17;;;;;;;25.67;16.33;;;10.20;43.90;;;;;;5075928;28;20187;-52
2022/11/29 12:06:46;;;;;;;31.30;16.75;;;10.20;44.10;;;;;;5075960;28;20196;-52
2022/11/29 12:09:22;;;;;;;25.73;15.98;;;10.20;44.20;;;;;;5075540;28;20576;-52
2022/11/29 12:12:13;;;;;;;29.30;16.77;;;10.20;44.30;;;;;;5075968;28;20488;-51
2022/11/29 12:15:05;;;;;;;31.05;16.48;;;10.10;44.40;;;;;;5075782;28;20185;-52
2022/11/29 12:17:48;;;;;;;22.75;15.15;;;10.20;44.50;;;;;;5074731;28;20215;-52
2022/11/29 12:20:35;;;;;;;28.17;17.33;;;10.10;44.40;;;;;;5075493;28;20171;-52
2022/11/29 12:23:17;;;;;;;21.98;14.05;;;10.10;44.80;;;;;;5075340;28;20172;-52
2022/11/29 12:25:54;;;;;;;21.20;15.35;;;10.20;44.60;;;;;;5075380;28;20149;-52
2022/11/29 12:28:29;;;;;;;24.52;16.00;;;10.30;44.40;;;;;;5075122;28;20231;-51
2022/11/29 12:31:06;;;;;;;29.40;16.90;;;10.30;44.30;;;;;;5075557;28;20635;-51
2022/11/29 12:33:44;;;;;;;25.10;15.48;;;10.40;44.10;;;;;;5075152;28;20198;-52
2022/11/29 12:36:30;;;;;;;25.33;15.38;;;10.40;44.60;;;;;;5075053;28;20199;-52
2022/11/29 12:39:13;;;;;;;24.13;15.30;;;10.40;44.00;;;;;;5074934;28;20267;-52
2022/11/29 12:42:18;;;;;;;27.20;17.05;;;10.30;43.60;;;;;;5074927;28;20625;-52
2022/11/29 12:44:46;;;;;;;26.88;16.60;;;10.20;43.90;;;;;;5074900;28;20176;-52
2022/11/29 12:47:12;;;;;;;26.90;17.20;;;10.10;44.20;;;;;;5074888;28;20552;-52
2022/11/29 12:50:21;;;;;;;25.00;15.60;;;10.00;44.50;;;;;;5074670;28;20233;-52
2022/11/29 12:53:14;;;;;;;26.88;15.63;;;10.10;44.70;;;;;;5046032;28;20187;-52
2022/11/29 12:56:00;;;;;;;31.60;15.85;;;10.20;44.50;;;;;;5074941;28;20156;-51
2022/11/29 12:58:47;;;;;;;30.70;18.95;;;10.20;44.30;;;;;;5074042;28;20254;-52
2022/11/29 13:01:41;;;;;;;27.08;15.55;;;10.20;44.30;;;;;;5074695;28;20656;-52
2022/11/29 13:04:18;;;;;;;28.40;17.13;;;10.20;44.00;;;;;;5074584;28;20176;-52
2022/11/29 13:06:43;;;;;;;30.25;17.10;;;10.30;44.30;;;;;;5074499;28;20188;-52
2022/11/29 13:09:15;;;;;;;26.93;16.43;;;10.20;44.00;;;;;;5074222;28;20205;-52
2022/11/29 13:12:02;;;;;;;28.33;18.30;;;10.10;44.20;;;;;;5074497;28;20636;-52
2022/11/29 13:14:41;;;;;;;30.13;17.48;;;10.30;44.20;;;;;;5074370;28;20513;-52
2022/11/29 13:17:37;;;;;;;25.85;16.90;;;10.20;44.00;;;;;;5074184;28;20223;-51
2022/11/29 13:20:32;;;;;;;30.52;16.70;;;10.30;44.20;;;;;;5074375;28;20202;-51
2022/11/29 13:23:01;;;;;;;31.35;19.15;;;10.20;44.00;;;;;;5074340;28;20268;-52
2022/11/29 13:25:34;;;;;;;31.48;19.40;;;10.20;44.00;;;;;;5074047;28;20217;-52
2022/11/29 13:28:24;;;;;;;28.33;18.15;;;10.20;43.80;;;;;;5074039;28;20273;-51
2022/11/29 13:30:53;;;;;;;32.80;17.13;;;10.20;44.10;;;;;;5068958;28;20667;-52
2022/11/29 13:33:38;;;;;;;35.78;18.95;;;10.10;44.10;;;;;;5073922;28;20695;-52
2022/11/29 13:36:27;;;;;;;31.08;18.17;;;10.20;44.20;;;;;;5074252;28;20179;-52
2022/11/29 13:39:25;;;;;;;32.40;18.08;;;10.20;43.80;;;;;;5073471;28;20180;-52
2022/11/29 13:42:18;;;;;;;28.83;17.65;;;10.20;44.00;;;;;;5074002;28;20303;-52
2022/11/29 13:44:48;;;;;;;35.85;20.40;;;10.20;43.90;;;;;;5073902;28;20187;-52
2022/11/29 13:47:16;;;;;;;27.63;18.23;;;10.10;44.10;;;;;;5074086;28;20211;-52